Terminal Aerodrome Forecast
Issued by NWS Omaha/Valley, NE

Home | Current Version | Previous Version | Text Only | Print | Product List | Glossary Off
Versions: 1 2 3 4 5 6 7 8 9 10 11 12 13 14 15 16 17 18 19 20 21 22 23 24 25 26 27 28

000
FTUS43 KOAX 201738
TAFOFK
TAF
KOFK 201738Z 2018/2118 07005KT P6SM SCT100
     FM210600 07006KT P6SM BKN050
     FM211000 09005KT 3SM BR BKN020
     FM211400 14004KT P6SM BKN090=

USA.gov is the U.S. government's official web portal to all federal, state and local government web resources and services.